createdAt,value
2022-09-13T00:01:27.750Z,97370.78
2022-09-13T00:03:55.246Z,97384.69
2022-09-13T00:06:23.003Z,97379.00
2022-09-13T00:08:50.315Z,97383.25
2022-09-13T00:11:20.374Z,97383.59
2022-09-13T00:13:47.849Z,97382.53
2022-09-13T00:16:17.222Z,97378.81
2022-09-13T00:18:44.309Z,97372.34
2022-09-13T00:21:17.221Z,97358.19
2022-09-13T00:23:46.020Z,97356.31
2022-09-13T00:26:21.707Z,97350.69
2022-09-13T00:28:57.140Z,97343.19
2022-09-13T00:31:26.590Z,97333.72
2022-09-13T00:33:53.619Z,97335.59
2022-09-13T00:36:20.746Z,97329.09
2022-09-13T00:38:47.710Z,97317.78
2022-09-13T00:41:16.472Z,97309.19
2022-09-13T00:43:58.488Z,97308.94
2022-09-13T00:46:33.023Z,97310.50
2022-09-13T00:49:21.486Z,97312.56
2022-09-13T00:51:57.831Z,97311.69
2022-09-13T00:54:29.762Z,97315.16
2022-09-13T00:57:02.854Z,97316.47
2022-09-13T00:59:42.896Z,97309.72
2022-09-13T01:02:10.413Z,97306.69
2022-09-13T01:04:38.524Z,97310.06
2022-09-13T01:07:09.773Z,97314.34
2022-09-13T01:09:40.807Z,97310.06
2022-09-13T01:12:18.809Z,97308.44
2022-09-13T01:14:47.813Z,97312.44
2022-09-13T01:17:14.731Z,97327.88
2022-09-13T01:19:42.075Z,97322.50
2022-09-13T01:22:34.068Z,97331.13
2022-09-13T01:25:22.560Z,97330.78
2022-09-13T01:28:18.025Z,97334.00
2022-09-13T01:30:57.444Z,97332.31
2022-09-13T01:33:46.753Z,97339.78
2022-09-13T01:36:42.700Z,97339.56
2022-09-13T01:39:32.484Z,97326.28
2022-09-13T01:42:19.158Z,97339.19
2022-09-13T01:45:11.973Z,97340.81
2022-09-13T01:47:56.812Z,97339.00
2022-09-13T01:50:36.918Z,97341.84
2022-09-13T01:53:34.297Z,97348.41
2022-09-13T01:56:20.626Z,97341.66
2022-09-13T01:58:57.190Z,97341.06
2022-09-13T02:01:31.166Z,97339.31
2022-09-13T02:04:05.826Z,97347.53
2022-09-13T02:06:38.036Z,97345.00
2022-09-13T02:09:19.519Z,97346.22
2022-09-13T02:11:54.006Z,97349.97
2022-09-13T02:14:25.245Z,97346.72
2022-09-13T02:17:13.630Z,97341.81
2022-09-13T02:19:49.726Z,97335.16
2022-09-13T02:22:21.912Z,97328.66
2022-09-13T02:24:55.916Z,97329.13
2022-09-13T02:27:27.964Z,97336.13
2022-09-13T02:30:03.976Z,97332.00
2022-09-13T02:32:37.323Z,97336.03
2022-09-13T02:35:07.202Z,97335.84
2022-09-13T02:37:39.141Z,97346.00
2022-09-13T02:40:15.468Z,97337.38
2022-09-13T02:42:52.474Z,97340.13
2022-09-13T02:45:26.266Z,97347.47
2022-09-13T02:48:12.650Z,97342.00
2022-09-13T02:50:59.990Z,97351.69
2022-09-13T02:53:59.507Z,97360.16
2022-09-13T02:56:53.850Z,97359.03
2022-09-13T02:59:23.829Z,97351.88
2022-09-13T03:02:05.731Z,97350.38
2022-09-13T03:04:33.738Z,97359.78
2022-09-13T03:07:01.502Z,97356.44
2022-09-13T03:09:28.504Z,97361.34
2022-09-13T03:12:16.869Z,97361.66
2022-09-13T03:14:43.737Z,97367.47
2022-09-13T03:17:47.506Z,97370.88
2022-09-13T03:20:21.986Z,97368.19
2022-09-13T03:23:08.875Z,97368.44
2022-09-13T03:25:56.711Z,97372.47
2022-09-13T03:28:26.664Z,97384.53
2022-09-13T03:31:02.487Z,97393.44
2022-09-13T03:33:47.746Z,97399.84
2022-09-13T03:36:38.427Z,97389.66
2022-09-13T03:39:23.762Z,97395.34
2022-09-13T03:41:57.306Z,97397.41
2022-09-13T03:44:27.027Z,97403.53
2022-09-13T03:46:58.691Z,97396.81
2022-09-13T03:49:27.899Z,97403.53
2022-09-13T03:51:55.795Z,97403.53
2022-09-13T03:54:28.219Z,97413.31
2022-09-13T03:57:18.039Z,97412.63
2022-09-13T03:59:51.511Z,97418.78
2022-09-13T04:02:20.238Z,97410.19
2022-09-13T04:04:48.578Z,97421.88
2022-09-13T04:07:21.156Z,97423.06
2022-09-13T04:09:48.131Z,97425.63
2022-09-13T04:12:16.457Z,97421.78
2022-09-13T04:14:46.539Z,97427.84
2022-09-13T04:17:13.681Z,97431.69
2022-09-13T04:19:41.348Z,97430.50
2022-09-13T04:22:08.542Z,97426.31
2022-09-13T04:24:36.495Z,97420.63
2022-09-13T04:27:04.083Z,97418.22
2022-09-13T04:29:31.950Z,97421.81
2022-09-13T04:31:59.512Z,97426.56
2022-09-13T04:34:26.962Z,97429.69
2022-09-13T04:36:54.925Z,97421.75
2022-09-13T04:39:23.904Z,97418.25
2022-09-13T04:41:54.614Z,97416.72
2022-09-13T04:44:22.428Z,97417.97
2022-09-13T04:46:49.754Z,97411.59
2022-09-13T04:49:18.094Z,97416.91
2022-09-13T04:51:45.016Z,97417.25
2022-09-13T04:54:15.501Z,97410.31
2022-09-13T04:56:43.269Z,97409.44
2022-09-13T04:59:11.062Z,97410.59
2022-09-13T05:01:38.709Z,97411.38
2022-09-13T05:04:06.679Z,97411.88
2022-09-13T05:06:34.107Z,97405.72
2022-09-13T05:09:01.324Z,97409.59
2022-09-13T05:11:29.788Z,97402.94
2022-09-13T05:13:59.111Z,97405.72
2022-09-13T05:16:28.989Z,97417.13
2022-09-13T05:18:57.215Z,97406.66
2022-09-13T05:21:24.918Z,97408.94
2022-09-13T05:23:54.131Z,97409.09
2022-09-13T05:26:23.170Z,97417.50
2022-09-13T05:28:50.560Z,97424.13
2022-09-13T05:31:25.040Z,97411.59
2022-09-13T05:33:58.936Z,97411.22
2022-09-13T05:36:26.829Z,97408.63
2022-09-13T05:39:18.827Z,97410.66
2022-09-13T05:41:45.669Z,97404.44
2022-09-13T05:44:13.772Z,97406.16
2022-09-13T05:46:42.325Z,97398.75
2022-09-13T05:49:09.329Z,97403.38
2022-09-13T05:51:36.534Z,97401.88
2022-09-13T05:54:03.816Z,97404.84
2022-09-13T05:56:32.174Z,97412.44
2022-09-13T05:58:59.381Z,97408.41
2022-09-13T06:01:28.521Z,97409.81
2022-09-13T06:03:59.338Z,97421.66
2022-09-13T06:06:26.750Z,97415.19
2022-09-13T06:08:57.759Z,97419.53
2022-09-13T06:11:28.838Z,97427.63
2022-09-13T06:13:55.736Z,97415.50
2022-09-13T06:16:22.933Z,97418.19
2022-09-13T06:18:50.322Z,97421.97
2022-09-13T06:21:20.356Z,97424.13
2022-09-13T06:23:48.753Z,97424.91
2022-09-13T06:26:17.641Z,97430.56
2022-09-13T06:28:49.150Z,97430.59
2022-09-13T06:31:18.052Z,97429.22
2022-09-13T06:33:45.684Z,97438.09
2022-09-13T06:36:14.802Z,97432.09
2022-09-13T06:38:42.220Z,97436.44
2022-09-13T06:41:14.691Z,97435.63
2022-09-13T06:43:42.018Z,97437.22
2022-09-13T06:46:12.168Z,97441.81
2022-09-13T06:48:41.690Z,97439.56
2022-09-13T06:51:11.942Z,97444.75
2022-09-13T06:53:39.592Z,97447.50
2022-09-13T06:56:19.706Z,97439.91
2022-09-13T06:58:49.052Z,97440.69
2022-09-13T07:01:20.325Z,97441.22
2022-09-13T07:03:49.984Z,97445.03
2022-09-13T07:06:22.373Z,97452.00
2022-09-13T07:08:52.245Z,97442.59
2022-09-13T07:11:22.933Z,97439.50
2022-09-13T07:13:52.211Z,97442.53
2022-09-13T07:16:21.592Z,97443.91
2022-09-13T07:18:57.429Z,97443.41
2022-09-13T07:21:25.456Z,97446.28
2022-09-13T07:23:54.252Z,97440.00
2022-09-13T07:26:21.588Z,97444.94
2022-09-13T07:28:52.232Z,97444.59
2022-09-13T07:31:27.521Z,97440.53
2022-09-13T07:34:06.294Z,97444.09
2022-09-13T07:36:35.422Z,97436.13
2022-09-13T07:39:03.537Z,97437.81
2022-09-13T07:41:32.158Z,97442.16
2022-09-13T07:44:03.345Z,97443.03
2022-09-13T07:46:36.593Z,97442.28
2022-09-13T07:49:03.981Z,97446.53
2022-09-13T07:51:36.389Z,97456.19
2022-09-13T07:54:05.691Z,97454.75
2022-09-13T07:56:35.620Z,97443.22
2022-09-13T07:59:05.204Z,97451.50
2022-09-13T08:01:37.247Z,97462.22
2022-09-13T08:04:09.565Z,97459.81
2022-09-13T08:06:38.472Z,97449.78
2022-09-13T08:09:07.653Z,97453.16
2022-09-13T08:11:45.659Z,97458.63
2022-09-13T08:14:15.879Z,97458.38
2022-09-13T08:16:43.243Z,97458.97
2022-09-13T08:19:14.470Z,97454.75
2022-09-13T08:21:42.921Z,97453.56
2022-09-13T08:24:15.458Z,97445.19
2022-09-13T08:26:42.435Z,97449.19
2022-09-13T08:29:11.431Z,97443.16
2022-09-13T08:31:38.314Z,97439.13
2022-09-13T08:34:05.252Z,97437.41
2022-09-13T08:36:32.289Z,97442.19
2022-09-13T08:39:00.980Z,97438.28
2022-09-13T08:41:27.825Z,97439.47
2022-09-13T08:44:17.736Z,97434.00
2022-09-13T08:46:48.108Z,97438.78
2022-09-13T08:49:20.175Z,97429.78
2022-09-13T08:51:54.406Z,97432.47
2022-09-13T08:54:21.588Z,97432.88
2022-09-13T08:57:11.240Z,97430.09
2022-09-13T08:59:51.906Z,97428.38
2022-09-13T09:02:32.344Z,97421.53
2022-09-13T09:05:18.349Z,97415.13
2022-09-13T09:07:52.228Z,97415.41
2022-09-13T09:10:21.611Z,97415.31
2022-09-13T09:13:03.505Z,97409.84
2022-09-13T09:15:56.640Z,97412.34
2022-09-13T09:18:40.089Z,97408.31
2022-09-13T09:21:14.121Z,97404.06
2022-09-13T09:23:55.577Z,97395.72
2022-09-13T09:26:26.615Z,97405.81
2022-09-13T09:28:58.863Z,97406.03
2022-09-13T09:31:34.909Z,97399.91
2022-09-13T09:34:32.374Z,97401.91
2022-09-13T09:37:28.763Z,97404.84
2022-09-13T09:40:03.292Z,97406.06
2022-09-13T09:42:39.053Z,97411.06
2022-09-13T10:17:23.442Z,97420.88
2022-09-13T10:20:20.180Z,97409.03
2022-09-13T10:23:14.074Z,97399.53
2022-09-13T10:25:47.743Z,97411.66
2022-09-13T10:28:19.787Z,97407.59
2022-09-13T10:30:54.714Z,97412.22
2022-09-13T10:33:29.201Z,97401.56
2022-09-13T10:35:59.590Z,97400.84
2022-09-13T10:38:41.900Z,97406.66
2022-09-13T10:41:23.181Z,97410.69
2022-09-13T10:43:58.763Z,97406.53
2022-09-13T10:46:29.620Z,97403.16
2022-09-13T10:48:57.283Z,97400.47
2022-09-13T10:51:27.206Z,97391.59
2022-09-13T10:54:20.455Z,97397.84
2022-09-13T10:56:48.851Z,97399.75
2022-09-13T10:59:28.279Z,97388.00
2022-09-13T11:02:01.071Z,97397.56
2022-09-13T11:04:37.834Z,97397.09
2022-09-13T11:07:16.782Z,97395.84
2022-09-13T11:09:54.555Z,97390.88
2022-09-13T11:12:39.863Z,97387.13
2022-09-13T11:15:18.656Z,97379.09
2022-09-13T11:18:00.482Z,97381.78
2022-09-13T11:20:45.825Z,97372.03
2022-09-13T11:23:26.394Z,97377.78
2022-09-13T11:26:16.757Z,97374.25
2022-09-13T11:28:54.098Z,97369.38
2022-09-13T11:31:32.894Z,97365.81
2022-09-13T11:34:33.306Z,97366.00
2022-09-13T11:37:17.388Z,97366.31
2022-09-13T11:39:44.299Z,97365.25
2022-09-13T11:42:23.023Z,97367.31
2022-09-13T11:45:21.492Z,97367.59
2022-09-13T11:48:02.819Z,97372.03
2022-09-13T11:50:50.941Z,97370.25
2022-09-13T11:53:39.397Z,97360.41
2022-09-13T11:56:29.692Z,97369.22
2022-09-13T11:59:15.887Z,97372.53
2022-09-13T12:01:52.090Z,97370.94
2022-09-13T12:04:20.132Z,97376.06
2022-09-13T12:06:55.014Z,97372.28
2022-09-13T12:09:48.359Z,97376.03
2022-09-13T12:12:15.892Z,97367.06
2022-09-13T12:15:15.400Z,97372.38
2022-09-13T12:17:47.719Z,97367.75
2022-09-13T12:20:40.338Z,97369.00
2022-09-13T12:23:15.283Z,97375.38
2022-09-13T12:26:15.478Z,97374.84
2022-09-13T12:29:00.066Z,97369.00
2022-09-13T12:31:30.994Z,97368.19
2022-09-13T12:33:59.839Z,97368.69
2022-09-13T12:36:38.061Z,97364.81
2022-09-13T12:39:31.816Z,97364.09
2022-09-13T12:42:13.554Z,97369.44
2022-09-13T12:45:16.197Z,97364.81
2022-09-13T12:48:01.833Z,97370.31
2022-09-13T12:50:55.811Z,97377.09
2022-09-13T12:53:53.215Z,97379.88
2022-09-13T12:56:35.029Z,97372.63
2022-09-13T12:59:39.531Z,97383.69
2022-09-13T13:02:54.481Z,97380.53
2022-09-13T13:05:33.606Z,97381.50
2022-09-13T13:08:04.814Z,97386.16
2022-09-13T13:10:37.555Z,97385.34
2022-09-13T13:13:20.692Z,97381.50
2022-09-13T13:15:50.036Z,97393.88
2022-09-13T13:18:32.602Z,97383.47
2022-09-13T13:20:59.411Z,97384.19
2022-09-13T13:23:40.098Z,97386.97
2022-09-13T13:26:21.010Z,97393.53
2022-09-13T13:28:48.220Z,97390.59
2022-09-13T13:31:30.094Z,97394.63
2022-09-13T13:34:14.506Z,97388.03
2022-09-13T13:36:41.384Z,97397.53
2022-09-13T13:39:28.642Z,97396.16
2022-09-13T13:42:01.619Z,97401.66
2022-09-13T13:44:28.702Z,97408.75
2022-09-13T13:47:07.523Z,97404.59
2022-09-13T13:49:38.833Z,97408.47
2022-09-13T13:52:15.894Z,97406.09
2022-09-13T13:54:42.990Z,97415.84
2022-09-13T13:57:33.439Z,97413.78
2022-09-13T14:00:23.421Z,97408.13
2022-09-13T14:02:50.258Z,97413.88
2022-09-13T14:05:54.381Z,97410.44
2022-09-13T14:08:37.707Z,97405.59
2022-09-13T14:11:15.180Z,97410.72
2022-09-13T14:14:00.634Z,97407.00
2022-09-13T14:16:31.136Z,97406.50
2022-09-13T14:19:25.895Z,97412.09
2022-09-13T14:22:05.997Z,97417.84
2022-09-13T14:24:38.326Z,97420.47
2022-09-13T14:27:09.312Z,97425.53
2022-09-13T14:29:36.722Z,97432.69
2022-09-13T14:32:10.761Z,97431.63
2022-09-13T14:34:38.906Z,97428.09
2022-09-13T14:37:16.356Z,97431.81
2022-09-13T14:40:01.982Z,97426.84
2022-09-13T14:42:39.541Z,97434.25
2022-09-13T14:45:07.001Z,97433.06
2022-09-13T14:47:47.022Z,97435.41
2022-09-13T14:50:19.204Z,97440.25
2022-09-13T14:52:54.313Z,97436.28
2022-09-13T14:55:28.975Z,97434.75
2022-09-13T14:58:04.453Z,97440.00
2022-09-13T15:00:50.464Z,97434.00
2022-09-13T15:03:19.469Z,97431.72
2022-09-13T15:05:58.131Z,97441.13
2022-09-13T15:08:33.778Z,97443.03
2022-09-13T15:11:06.771Z,97441.28
2022-09-13T15:13:34.788Z,97448.28
2022-09-13T15:16:01.897Z,97438.50
2022-09-13T15:18:36.878Z,97433.59
2022-09-13T15:21:17.115Z,97434.47
2022-09-13T15:23:50.815Z,97434.38
2022-09-13T15:26:27.916Z,97438.63
2022-09-13T15:29:04.340Z,97432.63
2022-09-13T15:31:34.818Z,97434.06
2022-09-13T15:34:17.018Z,97444.25
2022-09-13T15:36:45.722Z,97443.88
2022-09-13T15:39:18.573Z,97445.75
2022-09-13T15:42:05.712Z,97460.69
2022-09-13T15:44:32.630Z,97464.53
2022-09-13T15:47:05.004Z,97451.13
2022-09-13T15:49:32.498Z,97460.00
2022-09-13T15:52:04.490Z,97458.84
2022-09-13T15:54:34.931Z,97459.50
2022-09-13T15:57:02.254Z,97454.25
2022-09-13T15:59:29.225Z,97457.59
2022-09-13T16:01:56.773Z,97458.50
2022-09-13T16:04:23.911Z,97466.59
2022-09-13T16:06:50.827Z,97467.91
2022-09-13T16:09:19.305Z,97463.09
2022-09-13T16:11:47.752Z,97463.13
2022-09-13T16:14:15.586Z,97465.09
2022-09-13T16:16:42.726Z,97463.69
2022-09-13T16:19:23.667Z,97465.88
2022-09-13T16:21:50.598Z,97463.47
2022-09-13T16:24:17.645Z,97468.13
2022-09-13T16:26:44.751Z,97465.50
2022-09-13T16:29:12.897Z,97474.16
2022-09-13T16:31:40.197Z,97460.13
2022-09-13T16:34:07.135Z,97470.09
2022-09-13T16:36:34.267Z,97476.88
2022-09-13T16:39:02.181Z,97475.22
2022-09-13T16:41:29.109Z,97476.03
2022-09-13T16:43:56.237Z,97472.06
2022-09-13T16:46:23.555Z,97475.00
2022-09-13T16:48:56.981Z,97471.38
2022-09-13T16:51:24.808Z,97486.81
2022-09-13T16:53:53.332Z,97491.16
2022-09-13T16:56:22.931Z,97485.75
2022-09-13T16:58:51.910Z,97493.91
2022-09-13T17:01:22.482Z,97496.31
2022-09-13T17:03:53.958Z,97491.75
2022-09-13T17:06:23.181Z,97492.03
2022-09-13T17:09:00.467Z,97495.50
2022-09-13T17:11:32.010Z,97501.19
2022-09-13T17:14:00.614Z,97503.91
2022-09-13T17:16:31.091Z,97508.75
2022-09-13T17:19:01.578Z,97506.31
2022-09-13T17:21:29.136Z,97513.09
2022-09-13T17:23:56.063Z,97512.53
2022-09-13T17:26:23.516Z,97517.97
2022-09-13T17:28:50.382Z,97513.13
2022-09-13T17:31:17.321Z,97526.06
2022-09-13T17:33:44.594Z,97531.88
2022-09-13T17:36:14.221Z,97533.72
2022-09-13T17:38:41.955Z,97527.81
2022-09-13T17:41:11.962Z,97537.59
2022-09-13T17:43:40.012Z,97532.97
2022-09-13T17:46:10.191Z,97537.63
2022-09-13T17:48:37.510Z,97541.41
2022-09-13T17:51:10.307Z,97535.22
2022-09-13T17:53:42.391Z,97539.28
2022-09-13T17:56:10.430Z,97543.06
2022-09-13T17:58:37.480Z,97545.75
2022-09-13T18:01:09.035Z,97547.13
2022-09-13T18:03:38.391Z,97550.38
2022-09-13T18:06:07.833Z,97547.59
2022-09-13T18:08:37.875Z,97553.28
2022-09-13T18:11:13.760Z,97548.47
2022-09-13T18:13:43.153Z,97548.78
2022-09-13T18:16:11.316Z,97559.09
2022-09-13T18:18:43.664Z,97547.75
2022-09-13T18:21:10.990Z,97552.63
2022-09-13T18:23:38.139Z,97562.63
2022-09-13T18:26:10.807Z,97546.72
2022-09-13T18:28:39.154Z,97554.00
2022-09-13T18:31:11.187Z,97556.69
2022-09-13T18:33:38.334Z,97553.41
2022-09-13T18:36:11.863Z,97559.97
2022-09-13T18:38:44.871Z,97550.81
2022-09-13T18:41:13.638Z,97556.78
2022-09-13T18:43:42.401Z,97558.91
2022-09-13T18:46:11.796Z,97561.41
2022-09-13T18:48:41.040Z,97561.34
2022-09-13T18:51:19.712Z,97570.22
2022-09-13T18:53:47.297Z,97569.16
2022-09-13T18:56:17.055Z,97571.38
2022-09-13T18:58:44.604Z,97571.69
2022-09-13T19:01:16.962Z,97566.53
2022-09-13T19:03:52.635Z,97575.16
2022-09-13T19:06:23.036Z,97563.91
2022-09-13T19:08:50.965Z,97561.44
2022-09-13T19:11:42.259Z,97558.47
2022-09-13T19:14:07.346Z,97560.09
2022-09-13T19:16:34.937Z,97549.56
2022-09-13T19:19:02.155Z,97548.44
2022-09-13T19:21:31.259Z,97552.72
2022-09-13T19:24:03.217Z,97556.59
2022-09-13T19:26:39.095Z,97547.09
2022-09-13T19:29:08.736Z,97546.84
2022-09-13T19:31:39.258Z,97550.59
2022-09-13T19:34:07.258Z,97546.50
2022-09-13T19:36:36.606Z,97544.59
2022-09-13T19:39:05.352Z,97548.09
2022-09-13T19:41:32.714Z,97543.81
2022-09-13T19:44:01.671Z,97541.66
2022-09-13T19:46:31.929Z,97543.75
2022-09-13T19:49:00.572Z,97549.22
2022-09-13T19:51:33.583Z,97537.31
2022-09-13T19:54:01.130Z,97542.19
2022-09-13T19:56:32.277Z,97539.75
2022-09-13T19:59:00.689Z,97541.38
2022-09-13T20:01:42.723Z,97541.38
2022-09-13T20:04:14.586Z,97545.69
2022-09-13T20:06:44.820Z,97543.81
2022-09-13T20:09:14.088Z,97551.69
2022-09-13T20:11:45.520Z,97546.28
2022-09-13T20:14:14.701Z,97541.09
2022-09-13T20:16:43.153Z,97542.16
2022-09-13T20:22:07.801Z,97538.16
2022-09-13T20:24:34.802Z,97542.44
2022-09-13T20:27:02.178Z,97539.44
2022-09-13T20:29:29.357Z,97548.31
2022-09-13T20:31:56.414Z,97553.22
2022-09-13T20:34:23.370Z,97556.69
2022-09-13T20:36:50.429Z,97553.50
2022-09-13T20:39:17.608Z,97553.53
2022-09-13T20:41:45.286Z,97560.63
2022-09-13T20:44:12.521Z,97552.75
2022-09-13T20:46:40.664Z,97555.44
2022-09-13T20:49:09.307Z,97559.50
2022-09-13T20:51:37.439Z,97553.31
2022-09-13T20:54:05.449Z,97556.53
2022-09-13T20:56:36.967Z,97557.94
2022-09-13T20:59:04.806Z,97557.94
2022-09-13T21:01:33.211Z,97561.72
2022-09-13T21:04:00.452Z,97555.81
2022-09-13T21:06:29.455Z,97553.34
2022-09-13T21:09:00.040Z,97556.88
2022-09-13T21:11:35.421Z,97561.72
2022-09-13T21:14:08.639Z,97553.91
2022-09-13T21:16:41.477Z,97558.25
2022-09-13T21:19:09.231Z,97560.16
2022-09-13T21:21:38.983Z,97562.06
2022-09-13T21:24:09.918Z,97560.47
2022-09-13T21:26:39.781Z,97555.63
2022-09-13T21:29:06.699Z,97554.00
2022-09-13T21:31:34.078Z,97558.88
2022-09-13T21:34:28.629Z,97555.91
2022-09-13T21:36:57.196Z,97555.91
2022-09-13T21:39:24.217Z,97559.72
2022-09-13T21:41:51.408Z,97553.78
2022-09-13T21:44:18.648Z,97551.88
2022-09-13T21:46:46.691Z,97543.78
2022-09-13T21:49:14.088Z,97551.88
2022-09-13T21:51:44.345Z,97552.69
2022-09-13T21:54:16.314Z,97550.53
2022-09-13T21:56:48.426Z,97543.78
2022-09-13T21:59:17.991Z,97546.78
2022-09-13T22:01:47.470Z,97550.00
2022-09-13T22:04:17.835Z,97550.00
2022-09-13T22:06:47.095Z,97545.97
2022-09-13T22:09:15.377Z,97536.50
2022-09-13T22:11:45.056Z,97538.66
2022-09-13T22:14:14.539Z,97541.91
2022-09-13T22:16:43.255Z,97540.56
2022-09-13T22:19:24.889Z,97539.47
2022-09-13T22:21:56.433Z,97537.56
2022-09-13T22:24:25.111Z,97539.19
2022-09-13T22:26:53.141Z,97541.59
2022-09-13T22:29:21.444Z,97542.19
2022-09-13T22:31:50.400Z,97544.88
2022-09-13T22:34:21.006Z,97548.06
2022-09-13T22:36:48.069Z,97541.56
2022-09-13T22:39:17.267Z,97542.94
2022-09-13T22:41:44.927Z,97541.56
2022-09-13T22:44:12.163Z,97535.41
2022-09-13T22:46:44.714Z,97533.72
2022-09-13T22:49:14.594Z,97528.59
2022-09-13T22:51:42.494Z,97524.47
2022-09-13T22:54:09.473Z,97526.84
2022-09-13T22:56:37.697Z,97528.47
2022-09-13T22:59:11.500Z,97527.56
2022-09-13T23:01:38.728Z,97532.28
2022-09-13T23:04:06.908Z,97537.03
2022-09-13T23:06:35.139Z,97528.09
2022-09-13T23:09:04.669Z,97534.56
2022-09-13T23:11:34.231Z,97535.88
2022-09-13T23:14:03.502Z,97530.69
2022-09-13T23:16:34.090Z,97541.00
2022-09-13T23:19:01.073Z,97530.19
2022-09-13T23:21:31.560Z,97536.47
2022-09-13T23:24:00.128Z,97538.84
2022-09-13T23:26:27.766Z,97540.97
2022-09-13T23:28:58.725Z,97541.16
2022-09-13T23:31:28.933Z,97545.63
2022-09-13T23:33:58.603Z,97544.25
2022-09-13T23:36:28.286Z,97542.06
2022-09-13T23:38:58.411Z,97548.66
2022-09-13T23:41:26.250Z,97551.31
2022-09-13T23:43:54.446Z,97547.44
2022-09-13T23:46:22.103Z,97547.94
2022-09-13T23:48:49.528Z,97550.81
2022-09-13T23:51:23.256Z,97556.38
2022-09-13T23:53:52.149Z,97564.28
2022-09-13T23:56:19.578Z,97553.53
2022-09-13T23:58:46.651Z,97557.09
